sensor_id;sensor_type;location;lat;lon;timestamp;P1;durP1;ratioP1;P2;durP2;ratioP2
6852;SDS011;3465;42.144;24.722;2022-07-03T00:02:05;11.60;;;5.18;;
6852;SDS011;3465;42.144;24.722;2022-07-03T00:04:30;10.90;;;4.97;;
6852;SDS011;3465;42.144;24.722;2022-07-03T00:06:56;7.47;;;4.82;;
6852;SDS011;3465;42.144;24.722;2022-07-03T00:09:22;8.63;;;5.18;;
6852;SDS011;3465;42.144;24.722;2022-07-03T00:11:47;9.15;;;5.03;;
6852;SDS011;3465;42.144;24.722;2022-07-03T00:14:15;9.20;;;5.57;;
6852;SDS011;3465;42.144;24.722;2022-07-03T00:16:41;6.65;;;5.55;;
6852;SDS011;3465;42.144;24.722;2022-07-03T00:19:09;7.55;;;4.65;;
6852;SDS011;3465;42.144;24.722;2022-07-03T00:21:38;7.65;;;5.20;;
6852;SDS011;3465;42.144;24.722;2022-07-03T00:24:10;6.38;;;5.40;;
6852;SDS011;3465;42.144;24.722;2022-07-03T00:26:44;12.60;;;5.38;;
6852;SDS011;3465;42.144;24.722;2022-07-03T00:29:13;10.38;;;5.82;;
6852;SDS011;3465;42.144;24.722;2022-07-03T00:31:40;8.57;;;5.30;;
6852;SDS011;3465;42.144;24.722;2022-07-03T00:34:06;10.10;;;5.90;;
6852;SDS011;3465;42.144;24.722;2022-07-03T00:36:37;8.20;;;5.50;;
6852;SDS011;3465;42.144;24.722;2022-07-03T00:39:03;11.77;;;6.10;;
6852;SDS011;3465;42.144;24.722;2022-07-03T00:41:30;9.20;;;5.28;;
6852;SDS011;3465;42.144;24.722;2022-07-03T00:43:57;5.60;;;5.00;;
6852;SDS011;3465;42.144;24.722;2022-07-03T00:46:23;14.23;;;6.10;;
6852;SDS011;3465;42.144;24.722;2022-07-03T00:48:50;7.97;;;5.78;;
6852;SDS011;3465;42.144;24.722;2022-07-03T00:51:21;9.52;;;5.80;;
6852;SDS011;3465;42.144;24.722;2022-07-03T00:53:53;7.93;;;5.18;;
6852;SDS011;3465;42.144;24.722;2022-07-03T00:56:25;9.15;;;5.90;;
6852;SDS011;3465;42.144;24.722;2022-07-03T00:58:52;10.55;;;6.00;;
6852;SDS011;3465;42.144;24.722;2022-07-03T01:01:20;5.93;;;5.30;;
6852;SDS011;3465;42.144;24.722;2022-07-03T01:03:53;13.40;;;6.03;;
6852;SDS011;3465;42.144;24.722;2022-07-03T01:07:25;9.93;;;6.13;;
6852;SDS011;3465;42.144;24.722;2022-07-03T01:09:48;7.45;;;5.70;;
6852;SDS011;3465;42.144;24.722;2022-07-03T01:18:09;9.93;;;6.45;;
6852;SDS011;3465;42.144;24.722;2022-07-03T01:20:53;10.48;;;6.57;;
6852;SDS011;3465;42.144;24.722;2022-07-03T01:23:41;7.30;;;6.18;;
6852;SDS011;3465;42.144;24.722;2022-07-03T01:26:18;6.60;;;5.82;;
6852;SDS011;3465;42.144;24.722;2022-07-03T01:28:44;10.50;;;6.35;;
6852;SDS011;3465;42.144;24.722;2022-07-03T01:31:10;12.23;;;6.30;;
6852;SDS011;3465;42.144;24.722;2022-07-03T01:33:44;9.63;;;6.78;;
6852;SDS011;3465;42.144;24.722;2022-07-03T01:36:15;8.75;;;6.63;;
6852;SDS011;3465;42.144;24.722;2022-07-03T01:38:42;6.75;;;5.63;;
6852;SDS011;3465;42.144;24.722;2022-07-03T01:41:09;12.52;;;6.57;;
6852;SDS011;3465;42.144;24.722;2022-07-03T01:43:39;8.82;;;5.97;;
6852;SDS011;3465;42.144;24.722;2022-07-03T01:46:12;8.38;;;6.60;;
6852;SDS011;3465;42.144;24.722;2022-07-03T01:48:38;10.25;;;6.13;;
6852;SDS011;3465;42.144;24.722;2022-07-03T01:51:07;9.07;;;6.00;;
6852;SDS011;3465;42.144;24.722;2022-07-03T01:53:37;9.77;;;6.70;;
6852;SDS011;3465;42.144;24.722;2022-07-03T01:56:11;9.27;;;6.65;;
6852;SDS011;3465;42.144;24.722;2022-07-03T01:58:37;11.48;;;7.00;;
6852;SDS011;3465;42.144;24.722;2022-07-03T02:01:06;9.68;;;6.70;;
6852;SDS011;3465;42.144;24.722;2022-07-03T02:03:41;10.95;;;6.95;;
6852;SDS011;3465;42.144;24.722;2022-07-03T02:06:12;11.25;;;7.43;;
6852;SDS011;3465;42.144;24.722;2022-07-03T02:11:43;9.05;;;6.53;;
6852;SDS011;3465;42.144;24.722;2022-07-03T02:19:15;9.10;;;6.47;;
6852;SDS011;3465;42.144;24.722;2022-07-03T02:21:52;8.45;;;6.30;;
6852;SDS011;3465;42.144;24.722;2022-07-03T02:24:25;8.88;;;6.20;;
6852;SDS011;3465;42.144;24.722;2022-07-03T02:26:53;9.20;;;6.20;;
6852;SDS011;3465;42.144;24.722;2022-07-03T02:29:26;11.00;;;6.70;;
6852;SDS011;3465;42.144;24.722;2022-07-03T02:31:58;9.52;;;6.45;;
6852;SDS011;3465;42.144;24.722;2022-07-03T02:34:27;9.77;;;6.57;;
6852;SDS011;3465;42.144;24.722;2022-07-03T02:37:01;8.32;;;6.60;;
6852;SDS011;3465;42.144;24.722;2022-07-03T02:39:34;9.93;;;6.43;;
6852;SDS011;3465;42.144;24.722;2022-07-03T02:42:08;8.82;;;6.68;;
6852;SDS011;3465;42.144;24.722;2022-07-03T02:44:50;8.07;;;7.03;;
6852;SDS011;3465;42.144;24.722;2022-07-03T02:47:23;12.25;;;7.28;;
6852;SDS011;3465;42.144;24.722;2022-07-03T03:03:26;10.38;;;7.25;;
6852;SDS011;3465;42.144;24.722;2022-07-03T03:05:53;11.77;;;7.80;;
6852;SDS011;3465;42.144;24.722;2022-07-03T03:08:33;10.98;;;7.68;;
6852;SDS011;3465;42.144;24.722;2022-07-03T03:11:02;9.77;;;7.47;;
6852;SDS011;3465;42.144;24.722;2022-07-03T03:13:31;11.73;;;8.50;;
6852;SDS011;3465;42.144;24.722;2022-07-03T03:16:04;11.95;;;8.23;;
6852;SDS011;3465;42.144;24.722;2022-07-03T03:18:37;13.20;;;8.35;;
6852;SDS011;3465;42.144;24.722;2022-07-03T03:21:10;10.32;;;8.63;;
6852;SDS011;3465;42.144;24.722;2022-07-03T03:23:47;13.98;;;8.20;;
6852;SDS011;3465;42.144;24.722;2022-07-03T03:26:15;14.70;;;8.10;;
6852;SDS011;3465;42.144;24.722;2022-07-03T03:28:43;9.43;;;7.75;;
6852;SDS011;3465;42.144;24.722;2022-07-03T03:31:09;14.25;;;8.48;;
6852;SDS011;3465;42.144;24.722;2022-07-03T03:33:39;13.75;;;8.57;;
6852;SDS011;3465;42.144;24.722;2022-07-03T03:36:07;10.63;;;8.65;;
6852;SDS011;3465;42.144;24.722;2022-07-03T03:38:33;13.20;;;8.55;;
6852;SDS011;3465;42.144;24.722;2022-07-03T03:40:59;9.57;;;7.93;;
6852;SDS011;3465;42.144;24.722;2022-07-03T03:43:25;10.30;;;7.80;;
6852;SDS011;3465;42.144;24.722;2022-07-03T03:45:51;12.80;;;8.30;;
6852;SDS011;3465;42.144;24.722;2022-07-03T03:48:16;13.10;;;8.68;;
6852;SDS011;3465;42.144;24.722;2022-07-03T03:50:45;13.07;;;8.13;;
6852;SDS011;3465;42.144;24.722;2022-07-03T03:53:11;15.15;;;8.73;;
6852;SDS011;3465;42.144;24.722;2022-07-03T03:55:37;11.43;;;7.60;;
6852;SDS011;3465;42.144;24.722;2022-07-03T03:58:03;12.00;;;7.50;;
6852;SDS011;3465;42.144;24.722;2022-07-03T04:00:30;10.85;;;8.13;;
6852;SDS011;3465;42.144;24.722;2022-07-03T04:02:55;9.80;;;7.80;;
6852;SDS011;3465;42.144;24.722;2022-07-03T04:05:21;10.75;;;7.60;;
6852;SDS011;3465;42.144;24.722;2022-07-03T04:07:46;8.93;;;7.45;;
6852;SDS011;3465;42.144;24.722;2022-07-03T04:10:11;13.43;;;7.50;;
6852;SDS011;3465;42.144;24.722;2022-07-03T04:12:37;10.75;;;7.13;;
6852;SDS011;3465;42.144;24.722;2022-07-03T04:15:02;11.85;;;7.80;;
6852;SDS011;3465;42.144;24.722;2022-07-03T04:17:28;9.88;;;7.32;;
6852;SDS011;3465;42.144;24.722;2022-07-03T04:19:54;13.82;;;6.78;;
6852;SDS011;3465;42.144;24.722;2022-07-03T04:22:19;8.68;;;6.20;;
6852;SDS011;3465;42.144;24.722;2022-07-03T04:24:45;10.40;;;6.50;;
6852;SDS011;3465;42.144;24.722;2022-07-03T04:27:10;15.65;;;7.03;;
6852;SDS011;3465;42.144;24.722;2022-07-03T04:29:36;10.15;;;6.65;;
6852;SDS011;3465;42.144;24.722;2022-07-03T04:32:01;15.27;;;7.22;;
6852;SDS011;3465;42.144;24.722;2022-07-03T04:34:27;11.43;;;7.18;;
6852;SDS011;3465;42.144;24.722;2022-07-03T04:36:52;16.88;;;7.30;;
6852;SDS011;3465;42.144;24.722;2022-07-03T04:39:18;9.38;;;7.13;;
6852;SDS011;3465;42.144;24.722;2022-07-03T04:41:43;9.52;;;7.28;;
6852;SDS011;3465;42.144;24.722;2022-07-03T04:44:09;10.93;;;6.93;;
6852;SDS011;3465;42.144;24.722;2022-07-03T04:46:34;13.38;;;7.20;;
6852;SDS011;3465;42.144;24.722;2022-07-03T04:49:00;10.57;;;7.57;;
6852;SDS011;3465;42.144;24.722;2022-07-03T04:51:25;12.18;;;7.45;;
6852;SDS011;3465;42.144;24.722;2022-07-03T04:53:51;14.65;;;7.13;;
6852;SDS011;3465;42.144;24.722;2022-07-03T04:56:16;12.32;;;6.88;;
6852;SDS011;3465;42.144;24.722;2022-07-03T04:58:42;15.75;;;7.15;;
6852;SDS011;3465;42.144;24.722;2022-07-03T05:01:07;13.32;;;6.85;;
6852;SDS011;3465;42.144;24.722;2022-07-03T05:03:32;10.88;;;6.65;;
6852;SDS011;3465;42.144;24.722;2022-07-03T05:05:58;11.77;;;7.20;;
6852;SDS011;3465;42.144;24.722;2022-07-03T05:08:24;13.90;;;6.90;;
6852;SDS011;3465;42.144;24.722;2022-07-03T05:10:49;8.75;;;7.07;;
6852;SDS011;3465;42.144;24.722;2022-07-03T05:13:14;11.75;;;6.97;;
6852;SDS011;3465;42.144;24.722;2022-07-03T05:15:40;9.65;;;6.95;;
6852;SDS011;3465;42.144;24.722;2022-07-03T05:18:05;13.48;;;6.85;;
6852;SDS011;3465;42.144;24.722;2022-07-03T05:20:30;16.25;;;7.07;;
6852;SDS011;3465;42.144;24.722;2022-07-03T05:23:00;11.35;;;6.85;;
6852;SDS011;3465;42.144;24.722;2022-07-03T05:25:27;7.53;;;6.25;;
6852;SDS011;3465;42.144;24.722;2022-07-03T05:27:54;8.73;;;6.35;;
6852;SDS011;3465;42.144;24.722;2022-07-03T05:30:20;7.65;;;5.93;;
6852;SDS011;3465;42.144;24.722;2022-07-03T05:32:48;9.88;;;6.40;;
6852;SDS011;3465;42.144;24.722;2022-07-03T05:35:14;9.38;;;6.35;;
6852;SDS011;3465;42.144;24.722;2022-07-03T05:37:39;9.23;;;6.82;;
6852;SDS011;3465;42.144;24.722;2022-07-03T05:40:05;10.32;;;6.57;;
6852;SDS011;3465;42.144;24.722;2022-07-03T05:42:31;9.55;;;6.72;;
6852;SDS011;3465;42.144;24.722;2022-07-03T05:44:56;12.27;;;7.15;;
6852;SDS011;3465;42.144;24.722;2022-07-03T05:47:22;11.57;;;6.78;;
6852;SDS011;3465;42.144;24.722;2022-07-03T05:49:47;10.55;;;7.03;;
6852;SDS011;3465;42.144;24.722;2022-07-03T05:52:13;11.95;;;6.82;;
6852;SDS011;3465;42.144;24.722;2022-07-03T05:54:39;9.27;;;6.72;;
6852;SDS011;3465;42.144;24.722;2022-07-03T05:57:05;9.88;;;6.53;;
6852;SDS011;3465;42.144;24.722;2022-07-03T05:59:30;12.80;;;7.03;;
6852;SDS011;3465;42.144;24.722;2022-07-03T06:01:56;10.02;;;7.25;;
6852;SDS011;3465;42.144;24.722;2022-07-03T06:04:21;9.68;;;6.82;;
6852;SDS011;3465;42.144;24.722;2022-07-03T06:06:46;11.32;;;6.72;;
6852;SDS011;3465;42.144;24.722;2022-07-03T06:09:12;10.10;;;7.18;;
6852;SDS011;3465;42.144;24.722;2022-07-03T06:11:37;11.35;;;7.13;;
6852;SDS011;3465;42.144;24.722;2022-07-03T06:14:03;10.18;;;7.50;;
6852;SDS011;3465;42.144;24.722;2022-07-03T06:16:28;9.35;;;6.72;;
6852;SDS011;3465;42.144;24.722;2022-07-03T06:18:53;21.83;;;7.50;;
6852;SDS011;3465;42.144;24.722;2022-07-03T06:21:19;12.68;;;6.32;;
6852;SDS011;3465;42.144;24.722;2022-07-03T06:23:44;10.27;;;6.88;;
6852;SDS011;3465;42.144;24.722;2022-07-03T06:26:10;11.90;;;6.78;;
6852;SDS011;3465;42.144;24.722;2022-07-03T06:28:38;9.05;;;6.72;;
6852;SDS011;3465;42.144;24.722;2022-07-03T06:31:03;7.63;;;6.60;;
6852;SDS011;3465;42.144;24.722;2022-07-03T06:33:29;15.98;;;7.00;;
6852;SDS011;3465;42.144;24.722;2022-07-03T06:35:54;7.55;;;6.32;;
6852;SDS011;3465;42.144;24.722;2022-07-03T06:38:20;14.15;;;6.53;;
6852;SDS011;3465;42.144;24.722;2022-07-03T06:40:45;11.88;;;7.30;;
6852;SDS011;3465;42.144;24.722;2022-07-03T06:43:11;8.75;;;6.95;;
6852;SDS011;3465;42.144;24.722;2022-07-03T06:45:36;8.50;;;6.93;;
6852;SDS011;3465;42.144;24.722;2022-07-03T06:48:02;9.30;;;6.43;;
6852;SDS011;3465;42.144;24.722;2022-07-03T06:50:27;15.45;;;6.85;;
6852;SDS011;3465;42.144;24.722;2022-07-03T06:52:52;12.43;;;6.80;;
6852;SDS011;3465;42.144;24.722;2022-07-03T06:55:21;9.35;;;6.18;;
6852;SDS011;3465;42.144;24.722;2022-07-03T06:57:46;9.20;;;5.90;;
6852;SDS011;3465;42.144;24.722;2022-07-03T07:00:12;8.00;;;6.25;;
6852;SDS011;3465;42.144;24.722;2022-07-03T07:02:37;8.88;;;6.18;;
6852;SDS011;3465;42.144;24.722;2022-07-03T07:05:03;11.88;;;7.47;;
6852;SDS011;3465;42.144;24.722;2022-07-03T07:07:29;8.73;;;6.57;;
6852;SDS011;3465;42.144;24.722;2022-07-03T07:09:54;13.68;;;5.85;;
6852;SDS011;3465;42.144;24.722;2022-07-03T07:12:20;9.65;;;6.05;;
6852;SDS011;3465;42.144;24.722;2022-07-03T07:14:45;9.20;;;6.00;;
6852;SDS011;3465;42.144;24.722;2022-07-03T07:17:11;8.50;;;6.30;;
6852;SDS011;3465;42.144;24.722;2022-07-03T07:19:36;8.27;;;5.75;;
6852;SDS011;3465;42.144;24.722;2022-07-03T07:22:02;10.98;;;5.68;;
6852;SDS011;3465;42.144;24.722;2022-07-03T07:24:28;9.45;;;5.00;;
6852;SDS011;3465;42.144;24.722;2022-07-03T07:26:53;7.43;;;5.50;;
6852;SDS011;3465;42.144;24.722;2022-07-03T07:29:19;9.63;;;5.32;;
6852;SDS011;3465;42.144;24.722;2022-07-03T07:31:45;10.25;;;5.28;;
6852;SDS011;3465;42.144;24.722;2022-07-03T07:34:10;8.35;;;5.20;;
6852;SDS011;3465;42.144;24.722;2022-07-03T07:36:36;6.45;;;5.35;;
6852;SDS011;3465;42.144;24.722;2022-07-03T07:39:02;12.82;;;5.25;;
6852;SDS011;3465;42.144;24.722;2022-07-03T07:41:28;7.75;;;5.18;;
6852;SDS011;3465;42.144;24.722;2022-07-03T07:43:53;6.60;;;4.70;;
6852;SDS011;3465;42.144;24.722;2022-07-03T07:46:18;9.02;;;5.25;;
6852;SDS011;3465;42.144;24.722;2022-07-03T07:48:44;6.35;;;4.80;;
6852;SDS011;3465;42.144;24.722;2022-07-03T07:51:10;7.47;;;4.97;;
6852;SDS011;3465;42.144;24.722;2022-07-03T07:53:36;9.27;;;4.80;;
6852;SDS011;3465;42.144;24.722;2022-07-03T07:56:02;7.50;;;4.65;;
6852;SDS011;3465;42.144;24.722;2022-07-03T07:58:28;7.38;;;4.50;;
6852;SDS011;3465;42.144;24.722;2022-07-03T08:00:53;7.78;;;4.90;;
6852;SDS011;3465;42.144;24.722;2022-07-03T08:03:38;4.93;;;4.25;;
6852;SDS011;3465;42.144;24.722;2022-07-03T08:06:22;13.30;;;5.05;;
6852;SDS011;3465;42.144;24.722;2022-07-03T08:08:47;8.70;;;4.50;;
6852;SDS011;3465;42.144;24.722;2022-07-03T08:11:13;5.10;;;4.15;;
6852;SDS011;3465;42.144;24.722;2022-07-03T08:13:40;11.32;;;5.57;;
6852;SDS011;3465;42.144;24.722;2022-07-03T08:16:06;10.85;;;4.72;;
6852;SDS011;3465;42.144;24.722;2022-07-03T08:18:31;5.97;;;4.55;;
6852;SDS011;3465;42.144;24.722;2022-07-03T08:20:57;7.18;;;4.10;;
6852;SDS011;3465;42.144;24.722;2022-07-03T08:23:22;10.05;;;4.68;;
6852;SDS011;3465;42.144;24.722;2022-07-03T08:25:48;8.60;;;4.30;;
6852;SDS011;3465;42.144;24.722;2022-07-03T08:28:13;5.57;;;3.83;;
6852;SDS011;3465;42.144;24.722;2022-07-03T08:30:38;9.50;;;4.30;;
6852;SDS011;3465;42.144;24.722;2022-07-03T08:33:04;6.47;;;4.20;;
6852;SDS011;3465;42.144;24.722;2022-07-03T08:35:29;8.75;;;4.05;;
6852;SDS011;3465;42.144;24.722;2022-07-03T08:37:55;5.70;;;4.07;;
6852;SDS011;3465;42.144;24.722;2022-07-03T08:40:21;5.70;;;3.80;;
6852;SDS011;3465;42.144;24.722;2022-07-03T08:42:47;5.68;;;3.97;;
6852;SDS011;3465;42.144;24.722;2022-07-03T08:45:15;7.43;;;4.10;;
6852;SDS011;3465;42.144;24.722;2022-07-03T08:47:43;5.57;;;3.85;;
6852;SDS011;3465;42.144;24.722;2022-07-03T08:50:17;6.88;;;3.83;;
6852;SDS011;3465;42.144;24.722;2022-07-03T08:52:44;6.00;;;4.00;;
6852;SDS011;3465;42.144;24.722;2022-07-03T08:55:10;4.45;;;3.90;;
6852;SDS011;3465;42.144;24.722;2022-07-03T08:57:38;4.25;;;3.85;;
6852;SDS011;3465;42.144;24.722;2022-07-03T09:00:06;5.75;;;3.55;;
6852;SDS011;3465;42.144;24.722;2022-07-03T09:02:33;5.60;;;3.38;;
6852;SDS011;3465;42.144;24.722;2022-07-03T09:04:59;3.97;;;3.58;;
6852;SDS011;3465;42.144;24.722;2022-07-03T09:07:27;4.53;;;3.25;;
6852;SDS011;3465;42.144;24.722;2022-07-03T09:09:56;4.50;;;3.65;;
6852;SDS011;3465;42.144;24.722;2022-07-03T09:12:21;9.02;;;3.00;;
6852;SDS011;3465;42.144;24.722;2022-07-03T09:14:47;3.47;;;3.17;;
6852;SDS011;3465;42.144;24.722;2022-07-03T09:17:12;3.88;;;3.00;;
6852;SDS011;3465;42.144;24.722;2022-07-03T09:19:43;8.70;;;3.10;;
6852;SDS011;3465;42.144;24.722;2022-07-03T09:24:43;5.80;;;3.20;;
6852;SDS011;3465;42.144;24.722;2022-07-03T09:27:10;7.20;;;3.65;;
6852;SDS011;3465;42.144;24.722;2022-07-03T09:29:49;6.95;;;3.03;;
6852;SDS011;3465;42.144;24.722;2022-07-03T09:32:16;7.00;;;4.03;;
6852;SDS011;3465;42.144;24.722;2022-07-03T09:34:42;4.10;;;3.25;;
6852;SDS011;3465;42.144;24.722;2022-07-03T09:37:07;7.13;;;3.20;;
6852;SDS011;3465;42.144;24.722;2022-07-03T09:39:33;9.30;;;3.58;;
6852;SDS011;3465;42.144;24.722;2022-07-03T09:42:02;7.22;;;3.40;;
6852;SDS011;3465;42.144;24.722;2022-07-03T09:44:39;6.05;;;3.22;;
6852;SDS011;3465;42.144;24.722;2022-07-03T09:49:45;6.53;;;3.60;;
6852;SDS011;3465;42.144;24.722;2022-07-03T09:52:44;5.05;;;3.30;;
6852;SDS011;3465;42.144;24.722;2022-07-03T09:57:34;4.80;;;3.75;;
6852;SDS011;3465;42.144;24.722;2022-07-03T10:00:16;5.93;;;3.58;;
6852;SDS011;3465;42.144;24.722;2022-07-03T10:05:39;4.80;;;3.50;;
6852;SDS011;3465;42.144;24.722;2022-07-03T10:08:13;7.95;;;3.38;;
6852;SDS011;3465;42.144;24.722;2022-07-03T10:10:43;5.85;;;3.10;;
6852;SDS011;3465;42.144;24.722;2022-07-03T10:13:10;3.83;;;3.17;;
6852;SDS011;3465;42.144;24.722;2022-07-03T10:15:37;9.80;;;3.65;;
6852;SDS011;3465;42.144;24.722;2022-07-03T10:18:07;7.35;;;2.95;;
6852;SDS011;3465;42.144;24.722;2022-07-03T10:20:35;4.20;;;3.60;;
6852;SDS011;3465;42.144;24.722;2022-07-03T10:23:03;5.65;;;3.20;;
6852;SDS011;3465;42.144;24.722;2022-07-03T10:25:32;5.57;;;3.17;;
6852;SDS011;3465;42.144;24.722;2022-07-03T10:28:00;6.95;;;3.67;;
6852;SDS011;3465;42.144;24.722;2022-07-03T10:30:26;7.05;;;3.65;;
6852;SDS011;3465;42.144;24.722;2022-07-03T10:32:52;4.97;;;3.42;;
6852;SDS011;3465;42.144;24.722;2022-07-03T10:35:32;5.93;;;3.60;;
6852;SDS011;3465;42.144;24.722;2022-07-03T10:40:30;6.80;;;3.25;;
6852;SDS011;3465;42.144;24.722;2022-07-03T10:43:31;5.28;;;3.40;;
6852;SDS011;3465;42.144;24.722;2022-07-03T10:46:23;5.05;;;3.78;;
6852;SDS011;3465;42.144;24.722;2022-07-03T10:49:03;6.25;;;3.65;;
6852;SDS011;3465;42.144;24.722;2022-07-03T10:51:33;8.20;;;3.70;;
6852;SDS011;3465;42.144;24.722;2022-07-03T11:07:33;13.68;;;3.80;;
6852;SDS011;3465;42.144;24.722;2022-07-03T11:10:44;6.38;;;3.80;;
6852;SDS011;3465;42.144;24.722;2022-07-03T11:16:13;4.78;;;3.70;;
6852;SDS011;3465;42.144;24.722;2022-07-03T11:18:51;11.98;;;3.80;;
6852;SDS011;3465;42.144;24.722;2022-07-03T11:21:24;6.45;;;3.85;;
6852;SDS011;3465;42.144;24.722;2022-07-03T11:24:03;6.45;;;3.72;;
6852;SDS011;3465;42.144;24.722;2022-07-03T11:26:38;5.38;;;3.92;;
6852;SDS011;3465;42.144;24.722;2022-07-03T11:29:04;8.32;;;4.03;;
6852;SDS011;3465;42.144;24.722;2022-07-03T11:31:29;6.65;;;4.03;;
6852;SDS011;3465;42.144;24.722;2022-07-03T11:41:30;6.55;;;3.85;;
6852;SDS011;3465;42.144;24.722;2022-07-03T11:44:17;9.48;;;4.47;;
6852;SDS011;3465;42.144;24.722;2022-07-03T11:46:46;7.65;;;4.30;;
6852;SDS011;3465;42.144;24.722;2022-07-03T11:51:39;16.85;;;4.30;;
6852;SDS011;3465;42.144;24.722;2022-07-03T11:54:06;6.43;;;4.28;;
6852;SDS011;3465;42.144;24.722;2022-07-03T11:56:32;4.28;;;3.88;;
6852;SDS011;3465;42.144;24.722;2022-07-03T11:58:59;6.95;;;4.45;;
6852;SDS011;3465;42.144;24.722;2022-07-03T12:03:53;4.70;;;3.92;;
6852;SDS011;3465;42.144;24.722;2022-07-03T12:06:33;6.38;;;4.20;;
6852;SDS011;3465;42.144;24.722;2022-07-03T12:09:13;11.50;;;4.25;;
6852;SDS011;3465;42.144;24.722;2022-07-03T12:11:40;5.88;;;4.40;;
6852;SDS011;3465;42.144;24.722;2022-07-03T12:14:06;6.13;;;4.85;;
6852;SDS011;3465;42.144;24.722;2022-07-03T12:16:32;6.82;;;4.10;;
6852;SDS011;3465;42.144;24.722;2022-07-03T12:19:02;7.90;;;4.50;;
6852;SDS011;3465;42.144;24.722;2022-07-03T12:21:35;8.30;;;4.57;;
6852;SDS011;3465;42.144;24.722;2022-07-03T12:24:08;8.27;;;4.43;;
6852;SDS011;3465;42.144;24.722;2022-07-03T12:26:35;5.35;;;4.30;;
6852;SDS011;3465;42.144;24.722;2022-07-03T12:29:02;9.38;;;4.60;;
6852;SDS011;3465;42.144;24.722;2022-07-03T12:31:29;5.05;;;4.47;;
6852;SDS011;3465;42.144;24.722;2022-07-03T12:33:55;6.93;;;4.07;;
6852;SDS011;3465;42.144;24.722;2022-07-03T12:36:23;7.68;;;4.50;;
6852;SDS011;3465;42.144;24.722;2022-07-03T12:38:49;10.00;;;4.65;;
6852;SDS011;3465;42.144;24.722;2022-07-03T12:41:17;6.90;;;4.35;;
6852;SDS011;3465;42.144;24.722;2022-07-03T12:43:44;6.68;;;4.28;;
6852;SDS011;3465;42.144;24.722;2022-07-03T12:46:54;5.18;;;4.35;;
6852;SDS011;3465;42.144;24.722;2022-07-03T12:49:11;9.30;;;4.70;;
6852;SDS011;3465;42.144;24.722;2022-07-03T12:54:33;7.68;;;4.45;;
6852;SDS011;3465;42.144;24.722;2022-07-03T12:57:10;8.50;;;4.55;;
6852;SDS011;3465;42.144;24.722;2022-07-03T13:00:13;8.48;;;4.15;;
6852;SDS011;3465;42.144;24.722;2022-07-03T13:02:45;9.68;;;4.25;;
6852;SDS011;3465;42.144;24.722;2022-07-03T13:05:20;9.93;;;4.32;;
6852;SDS011;3465;42.144;24.722;2022-07-03T13:07:51;7.50;;;5.22;;
6852;SDS011;3465;42.144;24.722;2022-07-03T13:10:19;6.55;;;4.63;;
6852;SDS011;3465;42.144;24.722;2022-07-03T13:12:52;7.05;;;4.55;;
6852;SDS011;3465;42.144;24.722;2022-07-03T13:15:19;6.05;;;4.38;;
6852;SDS011;3465;42.144;24.722;2022-07-03T13:20:23;6.28;;;4.45;;
6852;SDS011;3465;42.144;24.722;2022-07-03T13:22:51;6.22;;;4.35;;
6852;SDS011;3465;42.144;24.722;2022-07-03T13:25:18;5.20;;;4.43;;
6852;SDS011;3465;42.144;24.722;2022-07-03T13:27:44;7.50;;;4.38;;
6852;SDS011;3465;42.144;24.722;2022-07-03T13:30:10;4.88;;;3.80;;
6852;SDS011;3465;42.144;24.722;2022-07-03T13:32:36;4.70;;;4.13;;
6852;SDS011;3465;42.144;24.722;2022-07-03T13:35:02;9.40;;;4.32;;
6852;SDS011;3465;42.144;24.722;2022-07-03T13:37:27;6.82;;;4.38;;
6852;SDS011;3465;42.144;24.722;2022-07-03T13:39:53;5.25;;;4.15;;
6852;SDS011;3465;42.144;24.722;2022-07-03T13:42:18;5.60;;;3.70;;
6852;SDS011;3465;42.144;24.722;2022-07-03T13:44:43;10.40;;;4.03;;
6852;SDS011;3465;42.144;24.722;2022-07-03T13:47:09;7.35;;;4.22;;
6852;SDS011;3465;42.144;24.722;2022-07-03T13:49:34;7.63;;;3.90;;
6852;SDS011;3465;42.144;24.722;2022-07-03T13:52:00;8.18;;;4.38;;
6852;SDS011;3465;42.144;24.722;2022-07-03T13:54:25;7.80;;;3.88;;
6852;SDS011;3465;42.144;24.722;2022-07-03T13:56:51;6.22;;;3.85;;
6852;SDS011;3465;42.144;24.722;2022-07-03T13:59:16;5.50;;;4.30;;
6852;SDS011;3465;42.144;24.722;2022-07-03T14:01:43;7.50;;;3.95;;
6852;SDS011;3465;42.144;24.722;2022-07-03T14:04:09;8.30;;;4.10;;
6852;SDS011;3465;42.144;24.722;2022-07-03T14:06:35;12.93;;;4.90;;
6852;SDS011;3465;42.144;24.722;2022-07-03T14:09:01;4.78;;;4.15;;
6852;SDS011;3465;42.144;24.722;2022-07-03T14:11:27;6.50;;;4.45;;
6852;SDS011;3465;42.144;24.722;2022-07-03T14:13:52;6.40;;;4.18;;
6852;SDS011;3465;42.144;24.722;2022-07-03T14:16:18;8.07;;;4.30;;
6852;SDS011;3465;42.144;24.722;2022-07-03T14:18:43;6.25;;;4.50;;
6852;SDS011;3465;42.144;24.722;2022-07-03T14:21:09;8.73;;;4.30;;
6852;SDS011;3465;42.144;24.722;2022-07-03T14:23:35;6.72;;;4.38;;
6852;SDS011;3465;42.144;24.722;2022-07-03T14:26:00;7.75;;;3.90;;
6852;SDS011;3465;42.144;24.722;2022-07-03T14:28:26;7.25;;;4.32;;
6852;SDS011;3465;42.144;24.722;2022-07-03T14:31:10;8.00;;;4.57;;
6852;SDS011;3465;42.144;24.722;2022-07-03T14:33:54;7.72;;;3.78;;
6852;SDS011;3465;42.144;24.722;2022-07-03T14:36:20;5.18;;;3.67;;
6852;SDS011;3465;42.144;24.722;2022-07-03T14:38:46;5.40;;;4.00;;
6852;SDS011;3465;42.144;24.722;2022-07-03T14:41:11;6.10;;;4.38;;
6852;SDS011;3465;42.144;24.722;2022-07-03T14:43:37;5.53;;;3.72;;
6852;SDS011;3465;42.144;24.722;2022-07-03T14:46:03;6.38;;;3.80;;
6852;SDS011;3465;42.144;24.722;2022-07-03T14:48:28;6.70;;;3.90;;
6852;SDS011;3465;42.144;24.722;2022-07-03T14:50:54;5.80;;;3.72;;
6852;SDS011;3465;42.144;24.722;2022-07-03T14:53:20;7.90;;;4.20;;
6852;SDS011;3465;42.144;24.722;2022-07-03T14:55:47;4.57;;;3.80;;
6852;SDS011;3465;42.144;24.722;2022-07-03T14:58:17;7.07;;;4.18;;
6852;SDS011;3465;42.144;24.722;2022-07-03T15:00:51;6.13;;;4.05;;
6852;SDS011;3465;42.144;24.722;2022-07-03T15:05:54;8.23;;;3.90;;
6852;SDS011;3465;42.144;24.722;2022-07-03T15:08:29;7.50;;;3.65;;
6852;SDS011;3465;42.144;24.722;2022-07-03T15:11:43;8.43;;;4.15;;
6852;SDS011;3465;42.144;24.722;2022-07-03T15:14:09;6.90;;;3.95;;
6852;SDS011;3465;42.144;24.722;2022-07-03T15:16:39;4.97;;;4.00;;
6852;SDS011;3465;42.144;24.722;2022-07-03T15:19:05;5.57;;;3.55;;
6852;SDS011;3465;42.144;24.722;2022-07-03T15:21:34;3.95;;;3.55;;
6852;SDS011;3465;42.144;24.722;2022-07-03T15:24:02;5.35;;;4.10;;
6852;SDS011;3465;42.144;24.722;2022-07-03T15:26:31;7.53;;;3.70;;
6852;SDS011;3465;42.144;24.722;2022-07-03T15:28:57;3.90;;;3.60;;
6852;SDS011;3465;42.144;24.722;2022-07-03T15:31:28;7.78;;;4.00;;
6852;SDS011;3465;42.144;24.722;2022-07-03T15:34:01;10.07;;;4.10;;
6852;SDS011;3465;42.144;24.722;2022-07-03T15:36:29;12.00;;;4.20;;
6852;SDS011;3465;42.144;24.722;2022-07-03T15:39:03;5.13;;;3.70;;
6852;SDS011;3465;42.144;24.722;2022-07-03T15:41:34;7.28;;;3.80;;
6852;SDS011;3465;42.144;24.722;2022-07-03T15:44:20;6.50;;;4.20;;
6852;SDS011;3465;42.144;24.722;2022-07-03T15:46:58;4.00;;;3.55;;
6852;SDS011;3465;42.144;24.722;2022-07-03T15:49:29;8.00;;;3.53;;
6852;SDS011;3465;42.144;24.722;2022-07-03T16:00:22;10.90;;;4.50;;
6852;SDS011;3465;42.144;24.722;2022-07-03T16:05:54;7.70;;;3.85;;
6852;SDS011;3465;42.144;24.722;2022-07-03T16:08:21;11.65;;;4.30;;
6852;SDS011;3465;42.144;24.722;2022-07-03T16:10:48;7.32;;;4.13;;
6852;SDS011;3465;42.144;24.722;2022-07-03T16:13:16;5.35;;;4.10;;
6852;SDS011;3465;42.144;24.722;2022-07-03T16:15:44;6.80;;;3.97;;
6852;SDS011;3465;42.144;24.722;2022-07-03T16:18:10;8.20;;;3.80;;
6852;SDS011;3465;42.144;24.722;2022-07-03T16:20:37;10.80;;;4.43;;
6852;SDS011;3465;42.144;24.722;2022-07-03T16:23:06;7.10;;;4.40;;
6852;SDS011;3465;42.144;24.722;2022-07-03T16:25:34;7.43;;;4.30;;
6852;SDS011;3465;42.144;24.722;2022-07-03T16:28:03;5.95;;;3.67;;
6852;SDS011;3465;42.144;24.722;2022-07-03T16:30:31;5.68;;;4.10;;
6852;SDS011;3465;42.144;24.722;2022-07-03T16:33:00;5.93;;;3.90;;
6852;SDS011;3465;42.144;24.722;2022-07-03T16:35:45;9.98;;;4.00;;
6852;SDS011;3465;42.144;24.722;2022-07-03T16:38:12;6.18;;;4.10;;